sensor_id;sensor_type;location;lat;lon;timestamp;temperature;humidity
41756;DHT22;27435;48.480;9.258;2022-11-15T00:00:17;10.30;98.80
41756;DHT22;27435;48.480;9.258;2022-11-15T00:02:43;10.40;98.90
41756;DHT22;27435;48.480;9.258;2022-11-15T00:05:08;10.40;98.50
41756;DHT22;27435;48.480;9.258;2022-11-15T00:07:34;10.30;98.80
41756;DHT22;27435;48.480;9.258;2022-11-15T00:10:00;10.30;99.00
41756;DHT22;27435;48.480;9.258;2022-11-15T00:12:27;10.10;99.00
41756;DHT22;27435;48.480;9.258;2022-11-15T00:14:53;10.10;99.00
41756;DHT22;27435;48.480;9.258;2022-11-15T00:17:19;10.00;99.00
41756;DHT22;27435;48.480;9.258;2022-11-15T00:19:44;9.90;99.00
41756;DHT22;27435;48.480;9.258;2022-11-15T00:22:10;10.00;99.00
41756;DHT22;27435;48.480;9.258;2022-11-15T00:24:36;9.90;99.00
41756;DHT22;27435;48.480;9.258;2022-11-15T00:27:01;9.80;99.00
41756;DHT22;27435;48.480;9.258;2022-11-15T00:29:27;9.70;99.00
41756;DHT22;27435;48.480;9.258;2022-11-15T00:31:53;9.80;99.00
41756;DHT22;27435;48.480;9.258;2022-11-15T00:34:18;9.70;99.00
41756;DHT22;27435;48.480;9.258;2022-11-15T00:36:44;9.70;99.00
41756;DHT22;27435;48.480;9.258;2022-11-15T00:39:09;9.70;99.00
41756;DHT22;27435;48.480;9.258;2022-11-15T00:41:35;9.80;99.00
41756;DHT22;27435;48.480;9.258;2022-11-15T00:44:01;9.60;99.00
41756;DHT22;27435;48.480;9.258;2022-11-15T00:46:26;9.50;99.00
41756;DHT22;27435;48.480;9.258;2022-11-15T00:48:52;9.50;99.00
41756;DHT22;27435;48.480;9.258;2022-11-15T00:51:17;9.50;99.00
41756;DHT22;27435;48.480;9.258;2022-11-15T00:53:43;9.60;99.00
41756;DHT22;27435;48.480;9.258;2022-11-15T00:56:09;9.60;99.00
41756;DHT22;27435;48.480;9.258;2022-11-15T00:58:34;9.70;99.00
41756;DHT22;27435;48.480;9.258;2022-11-15T01:01:11;9.60;99.00
41756;DHT22;27435;48.480;9.258;2022-11-15T01:03:38;9.60;99.00
41756;DHT22;27435;48.480;9.258;2022-11-15T01:06:04;9.60;99.00
41756;DHT22;27435;48.480;9.258;2022-11-15T01:08:30;9.60;99.00
41756;DHT22;27435;48.480;9.258;2022-11-15T01:11:11;9.60;99.00
41756;DHT22;27435;48.480;9.258;2022-11-15T01:13:38;9.50;99.00
41756;DHT22;27435;48.480;9.258;2022-11-15T01:16:15;9.50;99.00
41756;DHT22;27435;48.480;9.258;2022-11-15T01:18:45;9.60;99.00
41756;DHT22;27435;48.480;9.258;2022-11-15T01:21:14;9.60;99.00
41756;DHT22;27435;48.480;9.258;2022-11-15T01:23:41;9.60;99.00
41756;DHT22;27435;48.480;9.258;2022-11-15T01:26:09;9.60;99.00
41756;DHT22;27435;48.480;9.258;2022-11-15T01:28:37;9.70;99.00
41756;DHT22;27435;48.480;9.258;2022-11-15T01:31:05;9.70;99.00
41756;DHT22;27435;48.480;9.258;2022-11-15T01:33:33;9.80;99.00
41756;DHT22;27435;48.480;9.258;2022-11-15T01:36:03;9.70;99.00
41756;DHT22;27435;48.480;9.258;2022-11-15T01:38:29;9.70;99.00
41756;DHT22;27435;48.480;9.258;2022-11-15T01:40:55;9.60;99.00
41756;DHT22;27435;48.480;9.258;2022-11-15T01:43:26;9.40;99.00
41756;DHT22;27435;48.480;9.258;2022-11-15T01:46:00;9.40;99.00
41756;DHT22;27435;48.480;9.258;2022-11-15T01:48:32;9.20;99.00
41756;DHT22;27435;48.480;9.258;2022-11-15T01:51:00;9.20;99.00
41756;DHT22;27435;48.480;9.258;2022-11-15T01:53:27;9.00;99.00
41756;DHT22;27435;48.480;9.258;2022-11-15T01:55:55;8.80;99.00
41756;DHT22;27435;48.480;9.258;2022-11-15T01:58:21;8.60;99.00
41756;DHT22;27435;48.480;9.258;2022-11-15T02:00:48;8.60;99.00
41756;DHT22;27435;48.480;9.258;2022-11-15T02:03:15;8.60;99.00
41756;DHT22;27435;48.480;9.258;2022-11-15T02:05:41;8.70;99.00
41756;DHT22;27435;48.480;9.258;2022-11-15T02:08:08;8.80;99.00
41756;DHT22;27435;48.480;9.258;2022-11-15T02:10:34;8.70;99.00
41756;DHT22;27435;48.480;9.258;2022-11-15T02:13:00;8.70;99.00
41756;DHT22;27435;48.480;9.258;2022-11-15T02:15:31;8.60;99.00
41756;DHT22;27435;48.480;9.258;2022-11-15T02:18:16;8.60;99.00
41756;DHT22;27435;48.480;9.258;2022-11-15T02:20:55;8.60;99.00
41756;DHT22;27435;48.480;9.258;2022-11-15T02:24:11;8.70;99.00
41756;DHT22;27435;48.480;9.258;2022-11-15T02:26:39;8.70;99.00
41756;DHT22;27435;48.480;9.258;2022-11-15T02:29:30;8.80;99.00
41756;DHT22;27435;48.480;9.258;2022-11-15T02:32:06;8.90;99.00
41756;DHT22;27435;48.480;9.258;2022-11-15T02:34:50;9.00;99.00
41756;DHT22;27435;48.480;9.258;2022-11-15T02:37:30;9.10;99.00
41756;DHT22;27435;48.480;9.258;2022-11-15T02:42:35;9.20;99.00
41756;DHT22;27435;48.480;9.258;2022-11-15T02:45:27;9.40;99.00
41756;DHT22;27435;48.480;9.258;2022-11-15T02:47:55;9.40;99.00
41756;DHT22;27435;48.480;9.258;2022-11-15T02:50:26;9.50;99.00
41756;DHT22;27435;48.480;9.258;2022-11-15T02:52:53;9.60;99.00
41756;DHT22;27435;48.480;9.258;2022-11-15T03:00:58;9.60;99.00
41756;DHT22;27435;48.480;9.258;2022-11-15T03:03:59;9.60;99.00
41756;DHT22;27435;48.480;9.258;2022-11-15T03:06:44;9.60;99.00
41756;DHT22;27435;48.480;9.258;2022-11-15T03:15:00;9.60;99.00
41756;DHT22;27435;48.480;9.258;2022-11-15T03:17:39;9.60;99.00
41756;DHT22;27435;48.480;9.258;2022-11-15T03:20:07;9.60;99.00
41756;DHT22;27435;48.480;9.258;2022-11-15T03:22:37;9.60;99.00
41756;DHT22;27435;48.480;9.258;2022-11-15T03:25:06;9.60;99.00
41756;DHT22;27435;48.480;9.258;2022-11-15T03:27:39;9.60;99.00
41756;DHT22;27435;48.480;9.258;2022-11-15T03:30:08;9.70;99.00
41756;DHT22;27435;48.480;9.258;2022-11-15T03:32:42;9.70;99.00
41756;DHT22;27435;48.480;9.258;2022-11-15T03:35:12;9.70;99.00
41756;DHT22;27435;48.480;9.258;2022-11-15T03:38:21;9.70;98.80
41756;DHT22;27435;48.480;9.258;2022-11-15T03:40:59;9.80;97.90
41756;DHT22;27435;48.480;9.258;2022-11-15T03:43:41;9.80;97.90
41756;DHT22;27435;48.480;9.258;2022-11-15T03:46:16;9.90;97.50
41756;DHT22;27435;48.480;9.258;2022-11-15T03:48:49;9.80;98.00
41756;DHT22;27435;48.480;9.258;2022-11-15T03:51:17;9.70;98.40
41756;DHT22;27435;48.480;9.258;2022-11-15T03:53:43;9.60;98.90
41756;DHT22;27435;48.480;9.258;2022-11-15T03:56:08;9.50;99.00
41756;DHT22;27435;48.480;9.258;2022-11-15T03:58:34;9.40;99.00
41756;DHT22;27435;48.480;9.258;2022-11-15T04:01:00;9.50;98.60
41756;DHT22;27435;48.480;9.258;2022-11-15T04:03:25;9.70;97.80
41756;DHT22;27435;48.480;9.258;2022-11-15T04:05:51;9.70;97.60
41756;DHT22;27435;48.480;9.258;2022-11-15T04:08:17;9.60;98.20
41756;DHT22;27435;48.480;9.258;2022-11-15T04:10:42;9.50;98.70
41756;DHT22;27435;48.480;9.258;2022-11-15T04:13:08;9.40;99.00
41756;DHT22;27435;48.480;9.258;2022-11-15T04:15:34;9.10;99.00
41756;DHT22;27435;48.480;9.258;2022-11-15T04:18:00;9.00;99.00
41756;DHT22;27435;48.480;9.258;2022-11-15T04:20:27;8.90;99.00
41756;DHT22;27435;48.480;9.258;2022-11-15T04:23:16;8.80;99.00
41756;DHT22;27435;48.480;9.258;2022-11-15T04:26:06;8.80;99.00
41756;DHT22;27435;48.480;9.258;2022-11-15T04:28:33;8.90;99.00
41756;DHT22;27435;48.480;9.258;2022-11-15T04:30:59;9.00;99.00
41756;DHT22;27435;48.480;9.258;2022-11-15T04:33:25;9.00;99.00
41756;DHT22;27435;48.480;9.258;2022-11-15T04:35:51;9.00;99.00
41756;DHT22;27435;48.480;9.258;2022-11-15T04:38:36;9.10;99.00
41756;DHT22;27435;48.480;9.258;2022-11-15T04:41:02;9.10;99.00
41756;DHT22;27435;48.480;9.258;2022-11-15T04:43:28;8.80;99.00
41756;DHT22;27435;48.480;9.258;2022-11-15T04:45:54;8.90;99.00
41756;DHT22;27435;48.480;9.258;2022-11-15T04:48:20;8.90;99.00
41756;DHT22;27435;48.480;9.258;2022-11-15T04:50:48;8.80;99.00
41756;DHT22;27435;48.480;9.258;2022-11-15T04:53:13;8.70;99.00
41756;DHT22;27435;48.480;9.258;2022-11-15T04:55:39;8.50;99.00
41756;DHT22;27435;48.480;9.258;2022-11-15T04:58:04;8.40;99.00
41756;DHT22;27435;48.480;9.258;2022-11-15T05:00:30;8.20;99.00
41756;DHT22;27435;48.480;9.258;2022-11-15T05:02:56;8.10;99.00
41756;DHT22;27435;48.480;9.258;2022-11-15T05:05:41;8.10;99.00
41756;DHT22;27435;48.480;9.258;2022-11-15T05:08:07;8.20;99.00
41756;DHT22;27435;48.480;9.258;2022-11-15T05:10:33;8.30;99.00
41756;DHT22;27435;48.480;9.258;2022-11-15T05:12:58;8.30;99.00
41756;DHT22;27435;48.480;9.258;2022-11-15T05:15:24;8.20;99.00
41756;DHT22;27435;48.480;9.258;2022-11-15T05:17:49;8.30;99.00
41756;DHT22;27435;48.480;9.258;2022-11-15T05:20:15;8.20;99.00
41756;DHT22;27435;48.480;9.258;2022-11-15T05:22:41;8.30;99.00
41756;DHT22;27435;48.480;9.258;2022-11-15T05:25:07;8.30;99.00
41756;DHT22;27435;48.480;9.258;2022-11-15T05:27:33;8.30;99.00
41756;DHT22;27435;48.480;9.258;2022-11-15T05:29:59;8.40;99.00
41756;DHT22;27435;48.480;9.258;2022-11-15T05:32:25;8.40;99.00
41756;DHT22;27435;48.480;9.258;2022-11-15T05:34:51;8.40;99.00
41756;DHT22;27435;48.480;9.258;2022-11-15T05:37:17;8.40;99.00
41756;DHT22;27435;48.480;9.258;2022-11-15T05:39:43;8.50;99.00
41756;DHT22;27435;48.480;9.258;2022-11-15T05:42:14;8.60;99.00
41756;DHT22;27435;48.480;9.258;2022-11-15T05:44:43;8.80;99.00
41756;DHT22;27435;48.480;9.258;2022-11-15T05:47:13;8.80;99.00
41756;DHT22;27435;48.480;9.258;2022-11-15T05:49:40;8.90;99.00
41756;DHT22;27435;48.480;9.258;2022-11-15T05:52:10;9.00;99.00
41756;DHT22;27435;48.480;9.258;2022-11-15T05:54:37;9.10;99.00
41756;DHT22;27435;48.480;9.258;2022-11-15T05:57:05;9.10;99.00
41756;DHT22;27435;48.480;9.258;2022-11-15T05:59:31;9.30;99.00
41756;DHT22;27435;48.480;9.258;2022-11-15T06:01:58;9.30;99.00
41756;DHT22;27435;48.480;9.258;2022-11-15T06:04:24;9.30;99.00
41756;DHT22;27435;48.480;9.258;2022-11-15T06:06:49;9.30;99.00
41756;DHT22;27435;48.480;9.258;2022-11-15T06:09:15;9.30;99.00
41756;DHT22;27435;48.480;9.258;2022-11-15T06:11:41;9.30;99.00
41756;DHT22;27435;48.480;9.258;2022-11-15T06:14:06;9.40;99.00
41756;DHT22;27435;48.480;9.258;2022-11-15T06:16:32;9.40;99.00
41756;DHT22;27435;48.480;9.258;2022-11-15T06:18:58;9.40;99.00
41756;DHT22;27435;48.480;9.258;2022-11-15T06:21:23;9.40;99.00
41756;DHT22;27435;48.480;9.258;2022-11-15T06:23:49;9.40;99.00
41756;DHT22;27435;48.480;9.258;2022-11-15T06:26:15;9.40;99.00
41756;DHT22;27435;48.480;9.258;2022-11-15T06:28:40;9.30;99.00
41756;DHT22;27435;48.480;9.258;2022-11-15T06:31:09;9.30;99.00
41756;DHT22;27435;48.480;9.258;2022-11-15T06:33:36;9.30;99.00
41756;DHT22;27435;48.480;9.258;2022-11-15T06:36:03;9.30;99.00
41756;DHT22;27435;48.480;9.258;2022-11-15T06:38:29;9.30;99.00
41756;DHT22;27435;48.480;9.258;2022-11-15T06:40:55;9.40;99.00
41756;DHT22;27435;48.480;9.258;2022-11-15T06:43:26;9.40;99.00
41756;DHT22;27435;48.480;9.258;2022-11-15T06:45:51;9.40;99.00
41756;DHT22;27435;48.480;9.258;2022-11-15T06:48:17;9.50;99.00
41756;DHT22;27435;48.480;9.258;2022-11-15T06:50:42;9.70;99.00
41756;DHT22;27435;48.480;9.258;2022-11-15T06:53:08;9.70;99.00
41756;DHT22;27435;48.480;9.258;2022-11-15T06:55:33;9.80;99.00
41756;DHT22;27435;48.480;9.258;2022-11-15T06:57:59;9.90;99.00
41756;DHT22;27435;48.480;9.258;2022-11-15T07:00:24;9.80;99.00
41756;DHT22;27435;48.480;9.258;2022-11-15T07:02:50;9.80;98.90
41756;DHT22;27435;48.480;9.258;2022-11-15T07:05:16;9.80;99.00
41756;DHT22;27435;48.480;9.258;2022-11-15T07:07:42;9.90;98.20
41756;DHT22;27435;48.480;9.258;2022-11-15T07:10:08;10.00;98.30
41756;DHT22;27435;48.480;9.258;2022-11-15T07:12:33;10.10;98.30
41756;DHT22;27435;48.480;9.258;2022-11-15T07:15:00;10.00;98.50
41756;DHT22;27435;48.480;9.258;2022-11-15T07:17:26;10.10;98.50
41756;DHT22;27435;48.480;9.258;2022-11-15T07:19:52;10.10;98.60
41756;DHT22;27435;48.480;9.258;2022-11-15T07:22:17;10.20;97.60
41756;DHT22;27435;48.480;9.258;2022-11-15T07:24:43;10.30;96.90
41756;DHT22;27435;48.480;9.258;2022-11-15T07:27:08;10.40;96.50
41756;DHT22;27435;48.480;9.258;2022-11-15T07:29:34;10.40;96.00
41756;DHT22;27435;48.480;9.258;2022-11-15T07:32:00;10.60;95.30
41756;DHT22;27435;48.480;9.258;2022-11-15T07:34:25;10.60;94.70
41756;DHT22;27435;48.480;9.258;2022-11-15T07:36:51;10.80;94.60
41756;DHT22;27435;48.480;9.258;2022-11-15T07:39:17;10.80;94.40
41756;DHT22;27435;48.480;9.258;2022-11-15T07:41:42;10.80;94.30
41756;DHT22;27435;48.480;9.258;2022-11-15T07:44:09;11.00;93.70
41756;DHT22;27435;48.480;9.258;2022-11-15T07:46:34;11.00;93.50
41756;DHT22;27435;48.480;9.258;2022-11-15T07:49:00;11.00;93.50
41756;DHT22;27435;48.480;9.258;2022-11-15T07:51:26;11.10;93.60
41756;DHT22;27435;48.480;9.258;2022-11-15T07:53:51;11.30;93.60
41756;DHT22;27435;48.480;9.258;2022-11-15T07:56:17;11.40;92.50
41756;DHT22;27435;48.480;9.258;2022-11-15T07:58:45;11.50;92.40
41756;DHT22;27435;48.480;9.258;2022-11-15T08:01:10;11.80;91.50
41756;DHT22;27435;48.480;9.258;2022-11-15T08:03:36;11.90;91.80
41756;DHT22;27435;48.480;9.258;2022-11-15T08:06:02;12.10;90.50
41756;DHT22;27435;48.480;9.258;2022-11-15T08:08:28;12.10;90.90
41756;DHT22;27435;48.480;9.258;2022-11-15T08:10:53;12.30;90.90
41756;DHT22;27435;48.480;9.258;2022-11-15T08:13:19;12.30;91.00
41756;DHT22;27435;48.480;9.258;2022-11-15T08:15:45;12.30;90.80
41756;DHT22;27435;48.480;9.258;2022-11-15T08:18:13;12.40;90.20
41756;DHT22;27435;48.480;9.258;2022-11-15T08:20:39;12.30;90.80
41756;DHT22;27435;48.480;9.258;2022-11-15T08:23:06;12.30;91.40
41756;DHT22;27435;48.480;9.258;2022-11-15T08:25:33;12.20;91.70
41756;DHT22;27435;48.480;9.258;2022-11-15T08:28:01;12.10;92.00
41756;DHT22;27435;48.480;9.258;2022-11-15T08:30:27;12.00;92.30
41756;DHT22;27435;48.480;9.258;2022-11-15T08:32:55;12.00;92.60
41756;DHT22;27435;48.480;9.258;2022-11-15T08:35:21;11.80;93.40
41756;DHT22;27435;48.480;9.258;2022-11-15T08:37:47;11.80;93.90
41756;DHT22;27435;48.480;9.258;2022-11-15T08:40:13;11.80;93.90
41756;DHT22;27435;48.480;9.258;2022-11-15T08:42:39;11.80;94.30
41756;DHT22;27435;48.480;9.258;2022-11-15T08:45:06;11.90;93.60
41756;DHT22;27435;48.480;9.258;2022-11-15T08:47:32;11.90;93.90
41756;DHT22;27435;48.480;9.258;2022-11-15T08:49:58;11.90;94.50
41756;DHT22;27435;48.480;9.258;2022-11-15T08:52:23;12.00;94.10
41756;DHT22;27435;48.480;9.258;2022-11-15T08:54:49;12.10;93.90
41756;DHT22;27435;48.480;9.258;2022-11-15T08:57:15;12.10;94.40
41756;DHT22;27435;48.480;9.258;2022-11-15T08:59:40;12.30;93.70
41756;DHT22;27435;48.480;9.258;2022-11-15T09:02:10;12.30;93.60
41756;DHT22;27435;48.480;9.258;2022-11-15T09:04:37;12.50;93.30
41756;DHT22;27435;48.480;9.258;2022-11-15T09:07:02;12.60;92.60
41756;DHT22;27435;48.480;9.258;2022-11-15T09:09:28;12.70;92.40
41756;DHT22;27435;48.480;9.258;2022-11-15T09:11:53;12.90;91.80
41756;DHT22;27435;48.480;9.258;2022-11-15T09:14:19;13.00;91.90
41756;DHT22;27435;48.480;9.258;2022-11-15T09:16:44;13.00;92.00
41756;DHT22;27435;48.480;9.258;2022-11-15T09:19:10;13.00;91.50
41756;DHT22;27435;48.480;9.258;2022-11-15T09:21:36;13.00;91.90
41756;DHT22;27435;48.480;9.258;2022-11-15T09:24:01;13.10;92.00
41756;DHT22;27435;48.480;9.258;2022-11-15T09:26:27;13.20;92.40
41756;DHT22;27435;48.480;9.258;2022-11-15T09:28:53;13.30;91.80
41756;DHT22;27435;48.480;9.258;2022-11-15T09:31:19;13.20;92.30
41756;DHT22;27435;48.480;9.258;2022-11-15T09:33:45;13.40;92.80
41756;DHT22;27435;48.480;9.258;2022-11-15T09:36:11;13.50;90.80
41756;DHT22;27435;48.480;9.258;2022-11-15T09:38:38;13.60;91.50
41756;DHT22;27435;48.480;9.258;2022-11-15T09:43:45;13.70;90.60
41756;DHT22;27435;48.480;9.258;2022-11-15T09:48:59;13.40;91.30
41756;DHT22;27435;48.480;9.258;2022-11-15T09:51:30;13.60;91.60
41756;DHT22;27435;48.480;9.258;2022-11-15T09:56:37;13.60;91.60
41756;DHT22;27435;48.480;9.258;2022-11-15T09:59:35;13.80;91.00
41756;DHT22;27435;48.480;9.258;2022-11-15T10:04:47;14.00;90.60
41756;DHT22;27435;48.480;9.258;2022-11-15T10:07:28;14.20;89.30
41756;DHT22;27435;48.480;9.258;2022-11-15T10:12:44;13.90;88.70
41756;DHT22;27435;48.480;9.258;2022-11-15T10:15:14;13.50;90.10
41756;DHT22;27435;48.480;9.258;2022-11-15T10:20:25;13.60;91.50
41756;DHT22;27435;48.480;9.258;2022-11-15T10:22:55;13.60;90.70
41756;DHT22;27435;48.480;9.258;2022-11-15T10:25:24;13.70;91.00
41756;DHT22;27435;48.480;9.258;2022-11-15T10:27:55;13.90;91.20
41756;DHT22;27435;48.480;9.258;2022-11-15T10:30:22;14.00;90.50
41756;DHT22;27435;48.480;9.258;2022-11-15T10:32:48;14.00;90.00
41756;DHT22;27435;48.480;9.258;2022-11-15T10:35:29;13.70;91.00
41756;DHT22;27435;48.480;9.258;2022-11-15T10:38:06;13.70;91.60
41756;DHT22;27435;48.480;9.258;2022-11-15T10:40:32;13.80;91.20
41756;DHT22;27435;48.480;9.258;2022-11-15T10:43:15;13.80;90.40
41756;DHT22;27435;48.480;9.258;2022-11-15T10:45:42;13.60;92.20
41756;DHT22;27435;48.480;9.258;2022-11-15T10:50:47;13.30;93.00
41756;DHT22;27435;48.480;9.258;2022-11-15T10:53:32;13.30;93.50
41756;DHT22;27435;48.480;9.258;2022-11-15T10:56:03;13.20;94.30
41756;DHT22;27435;48.480;9.258;2022-11-15T10:58:43;13.50;93.70
41756;DHT22;27435;48.480;9.258;2022-11-15T11:01:17;13.40;93.30
41756;DHT22;27435;48.480;9.258;2022-11-15T11:03:45;13.50;93.90
41756;DHT22;27435;48.480;9.258;2022-11-15T11:06:22;13.50;93.70
41756;DHT22;27435;48.480;9.258;2022-11-15T11:12:11;14.00;92.00
41756;DHT22;27435;48.480;9.258;2022-11-15T11:14:38;13.90;91.90
41756;DHT22;27435;48.480;9.258;2022-11-15T11:20:40;13.80;92.70
41756;DHT22;27435;48.480;9.258;2022-11-15T11:26:35;13.80;92.30
41756;DHT22;27435;48.480;9.258;2022-11-15T11:29:19;14.20;91.50
41756;DHT22;27435;48.480;9.258;2022-11-15T11:34:44;14.70;89.40
41756;DHT22;27435;48.480;9.258;2022-11-15T11:48:12;13.80;93.20
41756;DHT22;27435;48.480;9.258;2022-11-15T11:50:40;13.90;92.40
41756;DHT22;27435;48.480;9.258;2022-11-15T11:53:35;13.60;93.20
41756;DHT22;27435;48.480;9.258;2022-11-15T11:56:14;13.30;94.10
41756;DHT22;27435;48.480;9.258;2022-11-15T11:58:46;13.50;93.20
41756;DHT22;27435;48.480;9.258;2022-11-15T12:01:36;13.90;91.50
41756;DHT22;27435;48.480;9.258;2022-11-15T12:06:53;14.30;90.50
41756;DHT22;27435;48.480;9.258;2022-11-15T12:13:00;14.50;91.80
41756;DHT22;27435;48.480;9.258;2022-11-15T12:15:45;14.60;92.00
41756;DHT22;27435;48.480;9.258;2022-11-15T12:17:51;14.70;92.40
41756;DHT22;27435;48.480;9.258;2022-11-15T12:20:26;14.70;92.30
41756;DHT22;27435;48.480;9.258;2022-11-15T12:22:59;14.40;93.00
41756;DHT22;27435;48.480;9.258;2022-11-15T12:28:34;14.40;93.60
41756;DHT22;27435;48.480;9.258;2022-11-15T12:31:11;14.50;93.00
41756;DHT22;27435;48.480;9.258;2022-11-15T12:33:44;14.70;92.30
41756;DHT22;27435;48.480;9.258;2022-11-15T12:39:01;14.70;93.40
41756;DHT22;27435;48.480;9.258;2022-11-15T12:59:59;15.40;90.30
41756;DHT22;27435;48.480;9.258;2022-11-15T13:02:44;15.40;90.10
41756;DHT22;27435;48.480;9.258;2022-11-15T13:10:30;15.60;89.60
41756;DHT22;27435;48.480;9.258;2022-11-15T13:13:02;15.40;90.60
41756;DHT22;27435;48.480;9.258;2022-11-15T13:17:57;15.60;90.50
41756;DHT22;27435;48.480;9.258;2022-11-15T13:20:29;15.60;90.30
41756;DHT22;27435;48.480;9.258;2022-11-15T13:28:33;16.00;89.50
41756;DHT22;27435;48.480;9.258;2022-11-15T13:31:13;15.90;90.60
41756;DHT22;27435;48.480;9.258;2022-11-15T13:33:40;15.90;90.70
41756;DHT22;27435;48.480;9.258;2022-11-15T13:36:29;16.00;91.00
41756;DHT22;27435;48.480;9.258;2022-11-15T13:38:59;15.80;91.10
41756;DHT22;27435;48.480;9.258;2022-11-15T13:41:30;15.60;91.00
41756;DHT22;27435;48.480;9.258;2022-11-15T13:43:57;15.50;91.30
41756;DHT22;27435;48.480;9.258;2022-11-15T13:46:26;15.20;92.50
41756;DHT22;27435;48.480;9.258;2022-11-15T13:49:04;15.10;93.80
41756;DHT22;27435;48.480;9.258;2022-11-15T13:51:51;15.10;93.70
41756;DHT22;27435;48.480;9.258;2022-11-15T13:54:22;15.20;92.00
41756;DHT22;27435;48.480;9.258;2022-11-15T13:57:12;15.30;91.70
41756;DHT22;27435;48.480;9.258;2022-11-15T13:59:58;15.20;91.30
41756;DHT22;27435;48.480;9.258;2022-11-15T14:02:27;14.90;92.70
41756;DHT22;27435;48.480;9.258;2022-11-15T14:04:58;14.70;92.20
41756;DHT22;27435;48.480;9.258;2022-11-15T14:07:27;14.40;93.70
41756;DHT22;27435;48.480;9.258;2022-11-15T14:09:55;14.60;93.70
41756;DHT22;27435;48.480;9.258;2022-11-15T14:14:56;14.80;93.60
41756;DHT22;27435;48.480;9.258;2022-11-15T14:17:35;14.80;93.90
41756;DHT22;27435;48.480;9.258;2022-11-15T14:20:01;14.80;93.20
41756;DHT22;27435;48.480;9.258;2022-11-15T14:22:30;14.70;94.80
41756;DHT22;27435;48.480;9.258;2022-11-15T14:25:18;14.60;95.30
41756;DHT22;27435;48.480;9.258;2022-11-15T14:30:42;14.50;95.20
41756;DHT22;27435;48.480;9.258;2022-11-15T14:33:28;14.50;93.70
41756;DHT22;27435;48.480;9.258;2022-11-15T14:35:56;14.50;93.00
41756;DHT22;27435;48.480;9.258;2022-11-15T14:38:26;14.30;91.50
41756;DHT22;27435;48.480;9.258;2022-11-15T14:40:52;14.40;91.70
41756;DHT22;27435;48.480;9.258;2022-11-15T14:43:19;14.40;92.00
41756;DHT22;27435;48.480;9.258;2022-11-15T14:45:44;14.30;92.30
41756;DHT22;27435;48.480;9.258;2022-11-15T14:48:10;14.30;92.10
41756;DHT22;27435;48.480;9.258;2022-11-15T14:50:36;14.30;92.40
41756;DHT22;27435;48.480;9.258;2022-11-15T14:53:02;14.30;91.90
41756;DHT22;27435;48.480;9.258;2022-11-15T14:55:33;14.30;92.10
41756;DHT22;27435;48.480;9.258;2022-11-15T14:58:02;14.30;91.90
41756;DHT22;27435;48.480;9.258;2022-11-15T15:00:30;14.30;91.70
41756;DHT22;27435;48.480;9.258;2022-11-15T15:02:56;14.20;91.40
41756;DHT22;27435;48.480;9.258;2022-11-15T15:07:58;14.20;90.70
41756;DHT22;27435;48.480;9.258;2022-11-15T15:10:24;14.10;91.90
41756;DHT22;27435;48.480;9.258;2022-11-15T15:12:50;14.00;91.40
41756;DHT22;27435;48.480;9.258;2022-11-15T15:15:20;14.00;92.70
41756;DHT22;27435;48.480;9.258;2022-11-15T15:17:47;13.90;92.30
41756;DHT22;27435;48.480;9.258;2022-11-15T15:20:12;13.70;94.90
41756;DHT22;27435;48.480;9.258;2022-11-15T15:22:38;13.70;95.30
41756;DHT22;27435;48.480;9.258;2022-11-15T15:25:20;13.70;96.80
41756;DHT22;27435;48.480;9.258;2022-11-15T15:27:45;13.60;95.90
41756;DHT22;27435;48.480;9.258;2022-11-15T15:30:11;13.60;97.20
41756;DHT22;27435;48.480;9.258;2022-11-15T15:32:37;13.50;97.00
41756;DHT22;27435;48.480;9.258;2022-11-15T15:35:03;13.50;97.80
41756;DHT22;27435;48.480;9.258;2022-11-15T15:37:29;13.40;98.00
41756;DHT22;27435;48.480;9.258;2022-11-15T15:39:56;13.30;99.00
41756;DHT22;27435;48.480;9.258;2022-11-15T15:42:22;13.30;99.00
41756;DHT22;27435;48.480;9.258;2022-11-15T15:44:49;13.20;99.00
41756;DHT22;27435;48.480;9.258;2022-11-15T15:47:22;13.00;99.00
41756;DHT22;27435;48.480;9.258;2022-11-15T15:49:49;12.90;99.00
41756;DHT22;27435;48.480;9.258;2022-11-15T15:52:16;12.80;99.00
41756;DHT22;27435;48.480;9.258;2022-11-15T15:54:42;12.70;99.00
41756;DHT22;27435;48.480;9.258;2022-11-15T15:57:08;12.60;99.00
41756;DHT22;27435;48.480;9.258;2022-11-15T15:59:36;12.50;99.00
41756;DHT22;27435;48.480;9.258;2022-11-15T16:02:01;12.40;99.00
41756;DHT22;27435;48.480;9.258;2022-11-15T16:04:27;12.30;99.00
41756;DHT22;27435;48.480;9.258;2022-11-15T16:06:58;12.20;99.00
41756;DHT22;27435;48.480;9.258;2022-11-15T16:09:24;12.20;99.00
41756;DHT22;27435;48.480;9.258;2022-11-15T16:12:09;12.10;99.00
41756;DHT22;27435;48.480;9.258;2022-11-15T16:14:35;11.90;99.00
41756;DHT22;27435;48.480;9.258;2022-11-15T16:17:01;11.80;99.00
41756;DHT22;27435;48.480;9.258;2022-11-15T16:19:27;11.80;99.00
41756;DHT22;27435;48.480;9.258;2022-11-15T16:21:53;11.80;99.00
41756;DHT22;27435;48.480;9.258;2022-11-15T16:24:19;11.90;99.00
41756;DHT22;27435;48.480;9.258;2022-11-15T16:26:45;11.90;99.00
41756;DHT22;27435;48.480;9.258;2022-11-15T16:29:12;11.90;99.00
41756;DHT22;27435;48.480;9.258;2022-11-15T16:31:37;11.90;99.00
41756;DHT22;27435;48.480;9.258;2022-11-15T16:34:03;11.90;99.00
41756;DHT22;27435;48.480;9.258;2022-11-15T16:36:31;11.90;99.00
41756;DHT22;27435;48.480;9.258;2022-11-15T16:38:58;11.90;99.00
41756;DHT22;27435;48.480;9.258;2022-11-15T16:41:24;11.90;99.00
41756;DHT22;27435;48.480;9.258;2022-11-15T16:43:50;11.90;99.00
41756;DHT22;27435;48.480;9.258;2022-11-15T16:46:20;11.80;99.00
41756;DHT22;27435;48.480;9.258;2022-11-15T16:48:47;11.90;99.00
41756;DHT22;27435;48.480;9.258;2022-11-15T16:51:13;11.90;99.00
41756;DHT22;27435;48.480;9.258;2022-11-15T16:53:39;11.90;99.00
41756;DHT22;27435;48.480;9.258;2022-11-15T16:56:26;11.90;99.00
41756;DHT22;27435;48.480;9.258;2022-11-15T16:58:56;11.90;99.00
41756;DHT22;27435;48.480;9.258;2022-11-15T17:01:31;11.90;99.00
41756;DHT22;27435;48.480;9.258;2022-11-15T17:03:56;11.90;99.00
41756;DHT22;27435;48.480;9.258;2022-11-15T17:06:24;11.80;99.00
41756;DHT22;27435;48.480;9.258;2022-11-15T17:08:50;11.80;99.00
41756;DHT22;27435;48.480;9.258;2022-11-15T17:11:18;11.80;99.00
41756;DHT22;27435;48.480;9.258;2022-11-15T17:13:44;11.80;99.00
41756;DHT22;27435;48.480;9.258;2022-11-15T17:16:13;11.80;99.00
41756;DHT22;27435;48.480;9.258;2022-11-15T17:18:39;11.80;99.00
41756;DHT22;27435;48.480;9.258;2022-11-15T17:21:16;11.80;99.00
41756;DHT22;27435;48.480;9.258;2022-11-15T17:23:42;11.70;99.00
41756;DHT22;27435;48.480;9.258;2022-11-15T17:26:10;11.70;99.00
41756;DHT22;27435;48.480;9.258;2022-11-15T17:28:37;11.70;99.00
41756;DHT22;27435;48.480;9.258;2022-11-15T17:31:09;11.70;99.00
41756;DHT22;27435;48.480;9.258;2022-11-15T17:33:35;11.70;99.00
41756;DHT22;27435;48.480;9.258;2022-11-15T17:36:05;11.70;99.00
41756;DHT22;27435;48.480;9.258;2022-11-15T17:38:31;11.70;99.00